sensor_id;sensor_type;location;lat;lon;timestamp;P1;durP1;ratioP1;P2;durP2;ratioP2
1479;SDS011;732;51.698;4.886;2022-08-21T00:01:51;3.93;;;3.20;;
1479;SDS011;732;51.698;4.886;2022-08-21T00:04:20;7.37;;;3.43;;
1479;SDS011;732;51.698;4.886;2022-08-21T00:06:55;4.40;;;3.37;;
1479;SDS011;732;51.698;4.886;2022-08-21T00:09:25;3.80;;;3.00;;
1479;SDS011;732;51.698;4.886;2022-08-21T00:11:55;6.00;;;3.50;;
1479;SDS011;732;51.698;4.886;2022-08-21T00:14:23;5.70;;;3.67;;
1479;SDS011;732;51.698;4.886;2022-08-21T00:16:57;5.50;;;3.70;;
1479;SDS011;732;51.698;4.886;2022-08-21T00:19:26;4.80;;;3.93;;
1479;SDS011;732;51.698;4.886;2022-08-21T00:21:54;8.13;;;4.30;;
1479;SDS011;732;51.698;4.886;2022-08-21T00:24:23;6.83;;;4.30;;
1479;SDS011;732;51.698;4.886;2022-08-21T00:26:52;5.10;;;3.77;;
1479;SDS011;732;51.698;4.886;2022-08-21T00:29:22;4.80;;;3.10;;
1479;SDS011;732;51.698;4.886;2022-08-21T00:31:50;8.67;;;4.83;;
1479;SDS011;732;51.698;4.886;2022-08-21T00:34:19;7.37;;;4.60;;
1479;SDS011;732;51.698;4.886;2022-08-21T00:36:48;5.80;;;3.77;;
1479;SDS011;732;51.698;4.886;2022-08-21T00:39:16;6.50;;;4.40;;
1479;SDS011;732;51.698;4.886;2022-08-21T00:41:45;6.83;;;4.60;;
1479;SDS011;732;51.698;4.886;2022-08-21T00:44:15;7.33;;;4.73;;
1479;SDS011;732;51.698;4.886;2022-08-21T00:46:43;7.17;;;4.47;;
1479;SDS011;732;51.698;4.886;2022-08-21T00:49:12;6.83;;;4.57;;
1479;SDS011;732;51.698;4.886;2022-08-21T00:51:43;5.13;;;4.63;;
1479;SDS011;732;51.698;4.886;2022-08-21T00:54:16;6.17;;;4.60;;
1479;SDS011;732;51.698;4.886;2022-08-21T00:56:50;6.20;;;4.50;;
1479;SDS011;732;51.698;4.886;2022-08-21T00:59:27;7.03;;;5.17;;
1479;SDS011;732;51.698;4.886;2022-08-21T01:01:59;11.63;;;4.57;;
1479;SDS011;732;51.698;4.886;2022-08-21T01:04:28;7.00;;;4.77;;
1479;SDS011;732;51.698;4.886;2022-08-21T01:06:56;7.10;;;5.20;;
1479;SDS011;732;51.698;4.886;2022-08-21T01:09:25;10.33;;;5.20;;
1479;SDS011;732;51.698;4.886;2022-08-21T01:11:54;7.20;;;5.20;;
1479;SDS011;732;51.698;4.886;2022-08-21T01:14:22;7.93;;;5.10;;
1479;SDS011;732;51.698;4.886;2022-08-21T01:16:52;7.40;;;5.23;;
1479;SDS011;732;51.698;4.886;2022-08-21T01:19:23;7.43;;;5.00;;
1479;SDS011;732;51.698;4.886;2022-08-21T01:21:55;8.30;;;5.17;;
1479;SDS011;732;51.698;4.886;2022-08-21T01:24:23;7.20;;;4.63;;
1479;SDS011;732;51.698;4.886;2022-08-21T01:26:52;9.37;;;5.30;;
1479;SDS011;732;51.698;4.886;2022-08-21T01:29:23;9.93;;;6.43;;
1479;SDS011;732;51.698;4.886;2022-08-21T01:32:00;7.60;;;5.40;;
1479;SDS011;732;51.698;4.886;2022-08-21T01:34:34;7.70;;;4.80;;
1479;SDS011;732;51.698;4.886;2022-08-21T01:37:10;7.83;;;5.27;;
1479;SDS011;732;51.698;4.886;2022-08-21T01:39:44;7.13;;;5.63;;
1479;SDS011;732;51.698;4.886;2022-08-21T01:42:13;8.53;;;5.80;;
1479;SDS011;732;51.698;4.886;2022-08-21T01:44:42;6.90;;;5.20;;
1479;SDS011;732;51.698;4.886;2022-08-21T01:47:13;8.60;;;6.00;;
1479;SDS011;732;51.698;4.886;2022-08-21T01:49:44;7.30;;;5.80;;
1479;SDS011;732;51.698;4.886;2022-08-21T01:52:14;13.93;;;5.90;;
1479;SDS011;732;51.698;4.886;2022-08-21T01:54:42;9.70;;;5.97;;
1479;SDS011;732;51.698;4.886;2022-08-21T01:57:20;7.90;;;5.50;;
1479;SDS011;732;51.698;4.886;2022-08-21T01:59:51;9.70;;;6.30;;
1479;SDS011;732;51.698;4.886;2022-08-21T02:02:20;8.20;;;5.50;;
1479;SDS011;732;51.698;4.886;2022-08-21T02:04:49;8.43;;;6.03;;
1479;SDS011;732;51.698;4.886;2022-08-21T02:07:18;8.03;;;5.53;;
1479;SDS011;732;51.698;4.886;2022-08-21T02:09:47;6.13;;;4.70;;
1479;SDS011;732;51.698;4.886;2022-08-21T02:12:16;7.63;;;5.33;;
1479;SDS011;732;51.698;4.886;2022-08-21T02:14:44;9.90;;;5.30;;
1479;SDS011;732;51.698;4.886;2022-08-21T02:17:12;8.47;;;5.40;;
1479;SDS011;732;51.698;4.886;2022-08-21T02:19:41;8.83;;;4.50;;
1479;SDS011;732;51.698;4.886;2022-08-21T02:22:10;12.87;;;5.13;;
1479;SDS011;732;51.698;4.886;2022-08-21T02:24:40;9.17;;;5.17;;
1479;SDS011;732;51.698;4.886;2022-08-21T02:27:20;7.43;;;5.00;;
1479;SDS011;732;51.698;4.886;2022-08-21T02:29:52;7.77;;;5.57;;
1479;SDS011;732;51.698;4.886;2022-08-21T02:32:23;8.30;;;5.10;;
1479;SDS011;732;51.698;4.886;2022-08-21T02:34:53;8.60;;;5.27;;
1479;SDS011;732;51.698;4.886;2022-08-21T02:37:22;7.17;;;5.10;;
1479;SDS011;732;51.698;4.886;2022-08-21T02:39:52;13.53;;;6.20;;
1479;SDS011;732;51.698;4.886;2022-08-21T02:42:20;6.83;;;5.10;;
1479;SDS011;732;51.698;4.886;2022-08-21T02:44:49;8.40;;;4.93;;
1479;SDS011;732;51.698;4.886;2022-08-21T02:47:17;8.23;;;5.47;;
1479;SDS011;732;51.698;4.886;2022-08-21T02:49:46;10.13;;;5.87;;
1479;SDS011;732;51.698;4.886;2022-08-21T02:52:14;8.53;;;5.47;;
1479;SDS011;732;51.698;4.886;2022-08-21T02:54:42;6.50;;;5.20;;
1479;SDS011;732;51.698;4.886;2022-08-21T02:57:12;8.80;;;6.73;;
1479;SDS011;732;51.698;4.886;2022-08-21T02:59:41;8.10;;;6.40;;
1479;SDS011;732;51.698;4.886;2022-08-21T03:02:13;10.20;;;6.10;;
1479;SDS011;732;51.698;4.886;2022-08-21T03:04:41;8.30;;;5.60;;
1479;SDS011;732;51.698;4.886;2022-08-21T03:07:12;10.07;;;6.20;;
1479;SDS011;732;51.698;4.886;2022-08-21T03:09:41;10.93;;;6.40;;
1479;SDS011;732;51.698;4.886;2022-08-21T03:12:22;10.80;;;5.97;;
1479;SDS011;732;51.698;4.886;2022-08-21T03:14:55;9.37;;;5.63;;
1479;SDS011;732;51.698;4.886;2022-08-21T03:17:24;13.77;;;6.60;;
1479;SDS011;732;51.698;4.886;2022-08-21T03:19:55;13.90;;;7.50;;
1479;SDS011;732;51.698;4.886;2022-08-21T03:22:24;10.63;;;6.13;;
1479;SDS011;732;51.698;4.886;2022-08-21T03:24:56;8.40;;;5.97;;
1479;SDS011;732;51.698;4.886;2022-08-21T03:27:26;8.17;;;5.27;;
1479;SDS011;732;51.698;4.886;2022-08-21T03:29:57;7.23;;;5.27;;
1479;SDS011;732;51.698;4.886;2022-08-21T03:32:26;8.00;;;5.90;;
1479;SDS011;732;51.698;4.886;2022-08-21T03:34:55;10.47;;;6.30;;
1479;SDS011;732;51.698;4.886;2022-08-21T03:37:23;7.03;;;4.80;;
1479;SDS011;732;51.698;4.886;2022-08-21T03:39:52;7.47;;;5.37;;
1479;SDS011;732;51.698;4.886;2022-08-21T03:42:21;9.07;;;5.93;;
1479;SDS011;732;51.698;4.886;2022-08-21T03:44:51;13.70;;;5.23;;
1479;SDS011;732;51.698;4.886;2022-08-21T03:47:19;8.43;;;5.37;;
1479;SDS011;732;51.698;4.886;2022-08-21T03:49:49;8.77;;;5.53;;
1479;SDS011;732;51.698;4.886;2022-08-21T03:52:17;9.47;;;5.50;;
1479;SDS011;732;51.698;4.886;2022-08-21T03:54:46;6.50;;;4.80;;
1479;SDS011;732;51.698;4.886;2022-08-21T03:57:14;7.67;;;4.77;;
1479;SDS011;732;51.698;4.886;2022-08-21T03:59:43;8.50;;;4.60;;
1479;SDS011;732;51.698;4.886;2022-08-21T04:02:13;7.40;;;5.37;;
1479;SDS011;732;51.698;4.886;2022-08-21T04:04:47;7.83;;;4.90;;
1479;SDS011;732;51.698;4.886;2022-08-21T04:07:15;10.80;;;5.60;;
1479;SDS011;732;51.698;4.886;2022-08-21T04:09:44;7.23;;;4.10;;
1479;SDS011;732;51.698;4.886;2022-08-21T04:12:12;8.97;;;5.33;;
1479;SDS011;732;51.698;4.886;2022-08-21T04:14:41;9.10;;;5.90;;
1479;SDS011;732;51.698;4.886;2022-08-21T04:17:09;9.37;;;5.60;;
1479;SDS011;732;51.698;4.886;2022-08-21T04:19:39;7.73;;;4.90;;
1479;SDS011;732;51.698;4.886;2022-08-21T04:22:07;7.17;;;4.90;;
1479;SDS011;732;51.698;4.886;2022-08-21T04:24:36;12.07;;;5.40;;
1479;SDS011;732;51.698;4.886;2022-08-21T04:27:05;9.87;;;5.63;;
1479;SDS011;732;51.698;4.886;2022-08-21T04:29:33;7.87;;;5.40;;
1479;SDS011;732;51.698;4.886;2022-08-21T04:32:05;11.30;;;5.50;;
1479;SDS011;732;51.698;4.886;2022-08-21T04:34:34;10.60;;;5.60;;
1479;SDS011;732;51.698;4.886;2022-08-21T04:37:04;7.60;;;5.80;;
1479;SDS011;732;51.698;4.886;2022-08-21T04:39:32;7.20;;;5.17;;
1479;SDS011;732;51.698;4.886;2022-08-21T04:42:00;9.23;;;5.10;;
1479;SDS011;732;51.698;4.886;2022-08-21T04:44:30;7.93;;;5.57;;
1479;SDS011;732;51.698;4.886;2022-08-21T04:46:58;9.77;;;5.50;;
1479;SDS011;732;51.698;4.886;2022-08-21T04:49:27;10.17;;;5.83;;
1479;SDS011;732;51.698;4.886;2022-08-21T04:51:55;11.70;;;6.30;;
1479;SDS011;732;51.698;4.886;2022-08-21T04:54:25;8.07;;;5.80;;
1479;SDS011;732;51.698;4.886;2022-08-21T04:56:54;9.60;;;5.60;;
1479;SDS011;732;51.698;4.886;2022-08-21T04:59:30;9.53;;;5.23;;
1479;SDS011;732;51.698;4.886;2022-08-21T05:02:04;7.40;;;4.70;;
1479;SDS011;732;51.698;4.886;2022-08-21T05:04:36;11.80;;;5.10;;
1479;SDS011;732;51.698;4.886;2022-08-21T05:07:12;9.67;;;5.77;;
1479;SDS011;732;51.698;4.886;2022-08-21T05:10:07;10.80;;;5.70;;
1479;SDS011;732;51.698;4.886;2022-08-21T05:12:39;9.07;;;5.87;;
1479;SDS011;732;51.698;4.886;2022-08-21T05:15:09;12.97;;;6.40;;
1479;SDS011;732;51.698;4.886;2022-08-21T05:17:39;7.90;;;6.20;;
1479;SDS011;732;51.698;4.886;2022-08-21T05:20:08;10.03;;;6.33;;
1479;SDS011;732;51.698;4.886;2022-08-21T05:22:39;8.70;;;6.50;;
1479;SDS011;732;51.698;4.886;2022-08-21T05:25:09;10.83;;;6.23;;
1479;SDS011;732;51.698;4.886;2022-08-21T05:27:38;13.77;;;5.73;;
1479;SDS011;732;51.698;4.886;2022-08-21T05:30:08;12.00;;;5.97;;
1479;SDS011;732;51.698;4.886;2022-08-21T05:32:38;11.60;;;5.53;;
1479;SDS011;732;51.698;4.886;2022-08-21T05:35:07;11.80;;;7.57;;
1479;SDS011;732;51.698;4.886;2022-08-21T05:37:36;13.30;;;6.43;;
1479;SDS011;732;51.698;4.886;2022-08-21T05:40:05;8.60;;;6.40;;
1479;SDS011;732;51.698;4.886;2022-08-21T05:42:48;12.30;;;7.03;;
1479;SDS011;732;51.698;4.886;2022-08-21T05:45:22;11.00;;;6.80;;
1479;SDS011;732;51.698;4.886;2022-08-21T05:48:08;11.73;;;6.63;;
1479;SDS011;732;51.698;4.886;2022-08-21T05:50:38;9.73;;;6.80;;
1479;SDS011;732;51.698;4.886;2022-08-21T05:53:08;5.90;;;5.13;;
1479;SDS011;732;51.698;4.886;2022-08-21T05:55:38;10.27;;;6.80;;
1479;SDS011;732;51.698;4.886;2022-08-21T05:58:12;9.97;;;6.30;;
1479;SDS011;732;51.698;4.886;2022-08-21T06:00:42;9.20;;;6.07;;
1479;SDS011;732;51.698;4.886;2022-08-21T06:03:15;10.30;;;6.70;;
1479;SDS011;732;51.698;4.886;2022-08-21T06:05:46;11.40;;;6.13;;
1479;SDS011;732;51.698;4.886;2022-08-21T06:08:15;9.97;;;6.40;;
1479;SDS011;732;51.698;4.886;2022-08-21T06:10:46;8.13;;;5.37;;
1479;SDS011;732;51.698;4.886;2022-08-21T06:13:17;10.67;;;6.23;;
1479;SDS011;732;51.698;4.886;2022-08-21T06:15:47;9.40;;;5.33;;
1479;SDS011;732;51.698;4.886;2022-08-21T06:18:16;8.40;;;5.10;;
1479;SDS011;732;51.698;4.886;2022-08-21T06:20:45;7.70;;;5.27;;
1479;SDS011;732;51.698;4.886;2022-08-21T06:23:13;11.50;;;5.43;;
1479;SDS011;732;51.698;4.886;2022-08-21T06:25:42;7.20;;;5.10;;
1479;SDS011;732;51.698;4.886;2022-08-21T06:28:11;9.80;;;5.57;;
1479;SDS011;732;51.698;4.886;2022-08-21T06:30:40;11.57;;;5.10;;
1479;SDS011;732;51.698;4.886;2022-08-21T06:33:09;15.03;;;5.37;;
1479;SDS011;732;51.698;4.886;2022-08-21T06:35:38;7.43;;;4.40;;
1479;SDS011;732;51.698;4.886;2022-08-21T06:38:07;10.33;;;6.07;;
1479;SDS011;732;51.698;4.886;2022-08-21T06:40:36;11.70;;;5.23;;
1479;SDS011;732;51.698;4.886;2022-08-21T06:43:16;10.23;;;4.27;;
1479;SDS011;732;51.698;4.886;2022-08-21T06:45:45;7.30;;;4.80;;
1479;SDS011;732;51.698;4.886;2022-08-21T06:48:13;8.00;;;4.60;;
1479;SDS011;732;51.698;4.886;2022-08-21T06:50:45;9.23;;;4.47;;
1479;SDS011;732;51.698;4.886;2022-08-21T06:53:15;16.10;;;4.53;;
1479;SDS011;732;51.698;4.886;2022-08-21T06:55:46;8.83;;;4.73;;
1479;SDS011;732;51.698;4.886;2022-08-21T06:58:16;8.20;;;4.37;;
1479;SDS011;732;51.698;4.886;2022-08-21T07:00:47;8.70;;;4.17;;
1479;SDS011;732;51.698;4.886;2022-08-21T07:03:18;6.40;;;4.20;;
1479;SDS011;732;51.698;4.886;2022-08-21T07:05:49;6.00;;;4.53;;
1479;SDS011;732;51.698;4.886;2022-08-21T07:08:17;6.70;;;4.30;;
1479;SDS011;732;51.698;4.886;2022-08-21T07:10:46;9.03;;;4.83;;
1479;SDS011;732;51.698;4.886;2022-08-21T07:13:17;8.00;;;3.90;;
1479;SDS011;732;51.698;4.886;2022-08-21T07:15:46;10.00;;;5.03;;
1479;SDS011;732;51.698;4.886;2022-08-21T07:18:14;8.20;;;4.20;;
1479;SDS011;732;51.698;4.886;2022-08-21T07:20:44;6.10;;;3.97;;
1479;SDS011;732;51.698;4.886;2022-08-21T07:23:15;7.30;;;4.03;;
1479;SDS011;732;51.698;4.886;2022-08-21T07:25:49;11.03;;;4.87;;
1479;SDS011;732;51.698;4.886;2022-08-21T07:28:19;6.50;;;4.90;;
1479;SDS011;732;51.698;4.886;2022-08-21T07:30:49;6.70;;;4.30;;
1479;SDS011;732;51.698;4.886;2022-08-21T07:33:19;11.03;;;3.90;;
1479;SDS011;732;51.698;4.886;2022-08-21T07:35:48;5.73;;;4.00;;
1479;SDS011;732;51.698;4.886;2022-08-21T07:38:16;7.23;;;3.80;;
1479;SDS011;732;51.698;4.886;2022-08-21T07:40:45;4.83;;;4.03;;
1479;SDS011;732;51.698;4.886;2022-08-21T07:43:15;17.57;;;7.13;;
1479;SDS011;732;51.698;4.886;2022-08-21T07:45:45;7.87;;;4.30;;
1479;SDS011;732;51.698;4.886;2022-08-21T07:48:15;10.63;;;4.10;;
1479;SDS011;732;51.698;4.886;2022-08-21T07:50:43;7.10;;;4.20;;
1479;SDS011;732;51.698;4.886;2022-08-21T07:53:12;11.70;;;5.17;;
1479;SDS011;732;51.698;4.886;2022-08-21T07:55:41;10.40;;;3.20;;
1479;SDS011;732;51.698;4.886;2022-08-21T07:58:10;6.43;;;4.23;;
1479;SDS011;732;51.698;4.886;2022-08-21T08:00:39;8.13;;;4.17;;
1479;SDS011;732;51.698;4.886;2022-08-21T08:03:09;7.13;;;4.17;;
1479;SDS011;732;51.698;4.886;2022-08-21T08:05:37;8.03;;;3.50;;
1479;SDS011;732;51.698;4.886;2022-08-21T08:08:06;9.00;;;3.80;;
1479;SDS011;732;51.698;4.886;2022-08-21T08:10:34;6.73;;;3.10;;
1479;SDS011;732;51.698;4.886;2022-08-21T08:13:04;3.27;;;2.83;;
1479;SDS011;732;51.698;4.886;2022-08-21T08:15:36;7.80;;;3.27;;
1479;SDS011;732;51.698;4.886;2022-08-21T08:18:05;11.17;;;4.17;;
1479;SDS011;732;51.698;4.886;2022-08-21T08:20:34;6.00;;;3.10;;
1479;SDS011;732;51.698;4.886;2022-08-21T08:23:03;5.40;;;3.00;;
1479;SDS011;732;51.698;4.886;2022-08-21T08:25:32;5.40;;;3.00;;
1479;SDS011;732;51.698;4.886;2022-08-21T08:28:02;6.93;;;2.70;;
1479;SDS011;732;51.698;4.886;2022-08-21T08:30:43;4.60;;;2.73;;
1479;SDS011;732;51.698;4.886;2022-08-21T08:33:12;6.40;;;2.50;;
1479;SDS011;732;51.698;4.886;2022-08-21T08:35:42;5.53;;;2.53;;
1479;SDS011;732;51.698;4.886;2022-08-21T08:38:15;5.53;;;2.80;;
1479;SDS011;732;51.698;4.886;2022-08-21T08:40:51;5.23;;;2.50;;
1479;SDS011;732;51.698;4.886;2022-08-21T08:43:27;7.63;;;3.93;;
1479;SDS011;732;51.698;4.886;2022-08-21T08:45:59;6.90;;;2.50;;
1479;SDS011;732;51.698;4.886;2022-08-21T08:48:39;5.07;;;2.37;;
1479;SDS011;732;51.698;4.886;2022-08-21T08:51:21;3.03;;;2.70;;
1479;SDS011;732;51.698;4.886;2022-08-21T08:53:55;5.53;;;2.30;;
1479;SDS011;732;51.698;4.886;2022-08-21T08:56:30;8.93;;;3.03;;
1479;SDS011;732;51.698;4.886;2022-08-21T08:59:02;7.07;;;2.80;;
1479;SDS011;732;51.698;4.886;2022-08-21T09:01:36;6.50;;;2.70;;
1479;SDS011;732;51.698;4.886;2022-08-21T09:04:05;4.63;;;2.40;;
1479;SDS011;732;51.698;4.886;2022-08-21T09:06:48;5.63;;;2.40;;
1479;SDS011;732;51.698;4.886;2022-08-21T09:09:29;5.23;;;2.50;;
1479;SDS011;732;51.698;4.886;2022-08-21T09:12:12;3.30;;;2.50;;
1479;SDS011;732;51.698;4.886;2022-08-21T09:14:56;5.20;;;1.93;;
1479;SDS011;732;51.698;4.886;2022-08-21T09:17:39;5.40;;;2.60;;
1479;SDS011;732;51.698;4.886;2022-08-21T09:20:23;6.60;;;2.80;;
1479;SDS011;732;51.698;4.886;2022-08-21T09:23:04;4.93;;;2.53;;
1479;SDS011;732;51.698;4.886;2022-08-21T09:25:53;3.80;;;2.00;;
1479;SDS011;732;51.698;4.886;2022-08-21T09:28:31;9.37;;;2.73;;
1479;SDS011;732;51.698;4.886;2022-08-21T09:31:01;8.37;;;2.73;;
1479;SDS011;732;51.698;4.886;2022-08-21T09:33:34;5.03;;;2.77;;
1479;SDS011;732;51.698;4.886;2022-08-21T09:36:04;5.30;;;2.80;;
1479;SDS011;732;51.698;4.886;2022-08-21T09:38:36;8.40;;;3.13;;
1479;SDS011;732;51.698;4.886;2022-08-21T09:41:06;4.07;;;2.27;;
1479;SDS011;732;51.698;4.886;2022-08-21T09:43:37;4.67;;;2.07;;
1479;SDS011;732;51.698;4.886;2022-08-21T09:46:09;2.30;;;1.90;;
1479;SDS011;732;51.698;4.886;2022-08-21T09:48:48;7.13;;;2.07;;
1479;SDS011;732;51.698;4.886;2022-08-21T09:51:20;7.17;;;2.87;;
1479;SDS011;732;51.698;4.886;2022-08-21T09:53:54;5.20;;;2.80;;
1479;SDS011;732;51.698;4.886;2022-08-21T09:56:28;7.60;;;2.03;;
1479;SDS011;732;51.698;4.886;2022-08-21T09:59:19;2.60;;;1.73;;
1479;SDS011;732;51.698;4.886;2022-08-21T10:02:03;6.03;;;1.80;;
1479;SDS011;732;51.698;4.886;2022-08-21T10:04:53;3.37;;;2.00;;
1479;SDS011;732;51.698;4.886;2022-08-21T10:07:26;3.50;;;2.00;;
1479;SDS011;732;51.698;4.886;2022-08-21T10:10:00;4.07;;;2.03;;
1479;SDS011;732;51.698;4.886;2022-08-21T10:12:37;2.77;;;1.90;;
1479;SDS011;732;51.698;4.886;2022-08-21T10:15:18;4.17;;;1.60;;
1479;SDS011;732;51.698;4.886;2022-08-21T10:17:55;2.60;;;1.67;;
1479;SDS011;732;51.698;4.886;2022-08-21T10:20:34;4.50;;;1.80;;
1479;SDS011;732;51.698;4.886;2022-08-21T10:23:15;3.77;;;1.50;;
1479;SDS011;732;51.698;4.886;2022-08-21T10:26:02;2.27;;;1.50;;
1479;SDS011;732;51.698;4.886;2022-08-21T10:28:42;5.00;;;1.80;;
1479;SDS011;732;51.698;4.886;2022-08-21T10:31:21;5.00;;;2.03;;
1479;SDS011;732;51.698;4.886;2022-08-21T10:34:05;4.43;;;1.30;;
1479;SDS011;732;51.698;4.886;2022-08-21T10:36:52;2.53;;;1.33;;
1479;SDS011;732;51.698;4.886;2022-08-21T10:39:36;2.40;;;1.57;;
1479;SDS011;732;51.698;4.886;2022-08-21T10:42:29;1.50;;;1.40;;
1479;SDS011;732;51.698;4.886;2022-08-21T10:45:14;4.43;;;2.00;;
1479;SDS011;732;51.698;4.886;2022-08-21T10:47:53;2.43;;;1.40;;
1479;SDS011;732;51.698;4.886;2022-08-21T10:50:27;3.20;;;1.30;;
1479;SDS011;732;51.698;4.886;2022-08-21T10:53:15;2.57;;;1.60;;
1479;SDS011;732;51.698;4.886;2022-08-21T10:56:02;1.83;;;1.50;;
1479;SDS011;732;51.698;4.886;2022-08-21T10:58:45;3.47;;;1.53;;
1479;SDS011;732;51.698;4.886;2022-08-21T11:01:23;4.50;;;1.60;;
1479;SDS011;732;51.698;4.886;2022-08-21T11:03:59;3.13;;;1.90;;
1479;SDS011;732;51.698;4.886;2022-08-21T11:06:40;5.50;;;1.67;;
1479;SDS011;732;51.698;4.886;2022-08-21T11:09:16;2.47;;;1.50;;
1479;SDS011;732;51.698;4.886;2022-08-21T11:11:52;2.47;;;1.57;;
1479;SDS011;732;51.698;4.886;2022-08-21T11:14:39;1.90;;;1.50;;
1479;SDS011;732;51.698;4.886;2022-08-21T11:17:17;3.60;;;1.40;;
1479;SDS011;732;51.698;4.886;2022-08-21T11:19:53;6.60;;;2.50;;
1479;SDS011;732;51.698;4.886;2022-08-21T11:22:32;1.97;;;1.30;;
1479;SDS011;732;51.698;4.886;2022-08-21T11:25:10;2.50;;;1.40;;
1479;SDS011;732;51.698;4.886;2022-08-21T11:27:49;2.33;;;1.20;;
1479;SDS011;732;51.698;4.886;2022-08-21T11:30:30;3.57;;;1.43;;
1479;SDS011;732;51.698;4.886;2022-08-21T11:33:14;1.80;;;1.33;;
1479;SDS011;732;51.698;4.886;2022-08-21T11:36:07;2.50;;;1.23;;
1479;SDS011;732;51.698;4.886;2022-08-21T11:38:44;2.10;;;1.10;;
1479;SDS011;732;51.698;4.886;2022-08-21T11:41:23;2.57;;;1.20;;
1479;SDS011;732;51.698;4.886;2022-08-21T11:44:00;2.07;;;1.23;;
1479;SDS011;732;51.698;4.886;2022-08-21T11:46:42;2.03;;;1.33;;
1479;SDS011;732;51.698;4.886;2022-08-21T11:49:21;4.60;;;1.30;;
1479;SDS011;732;51.698;4.886;2022-08-21T11:52:07;4.27;;;1.80;;
1479;SDS011;732;51.698;4.886;2022-08-21T11:54:46;3.10;;;1.50;;
1479;SDS011;732;51.698;4.886;2022-08-21T11:57:21;2.80;;;1.40;;
1479;SDS011;732;51.698;4.886;2022-08-21T12:00:07;3.50;;;1.33;;
1479;SDS011;732;51.698;4.886;2022-08-21T12:02:45;2.10;;;1.30;;
1479;SDS011;732;51.698;4.886;2022-08-21T12:08:11;4.90;;;1.93;;
1479;SDS011;732;51.698;4.886;2022-08-21T12:10:59;5.90;;;1.77;;
1479;SDS011;732;51.698;4.886;2022-08-21T12:13:32;2.40;;;1.10;;
1479;SDS011;732;51.698;4.886;2022-08-21T12:16:09;4.57;;;1.57;;
1479;SDS011;732;51.698;4.886;2022-08-21T12:18:42;2.70;;;1.53;;
1479;SDS011;732;51.698;4.886;2022-08-21T12:21:22;2.87;;;1.57;;
1479;SDS011;732;51.698;4.886;2022-08-21T12:24:01;4.43;;;2.07;;
1479;SDS011;732;51.698;4.886;2022-08-21T12:26:48;3.80;;;1.70;;
1479;SDS011;732;51.698;4.886;2022-08-21T12:29:22;5.90;;;1.50;;
1479;SDS011;732;51.698;4.886;2022-08-21T12:31:58;4.07;;;1.63;;
1479;SDS011;732;51.698;4.886;2022-08-21T12:34:34;5.43;;;2.40;;
1479;SDS011;732;51.698;4.886;2022-08-21T12:37:06;5.50;;;1.93;;
1479;SDS011;732;51.698;4.886;2022-08-21T12:39:52;7.40;;;1.50;;
1479;SDS011;732;51.698;4.886;2022-08-21T12:42:29;2.57;;;1.70;;
1479;SDS011;732;51.698;4.886;2022-08-21T12:45:09;2.77;;;1.77;;
1479;SDS011;732;51.698;4.886;2022-08-21T12:47:45;1.47;;;1.30;;
1479;SDS011;732;51.698;4.886;2022-08-21T12:50:21;4.07;;;2.40;;
1479;SDS011;732;51.698;4.886;2022-08-21T12:53:00;7.00;;;2.07;;
1479;SDS011;732;51.698;4.886;2022-08-21T12:55:46;2.03;;;1.33;;
1479;SDS011;732;51.698;4.886;2022-08-21T12:58:19;3.50;;;1.83;;
1479;SDS011;732;51.698;4.886;2022-08-21T13:00:49;2.23;;;1.63;;
1479;SDS011;732;51.698;4.886;2022-08-21T13:03:21;4.63;;;1.80;;
1479;SDS011;732;51.698;4.886;2022-08-21T13:05:52;3.00;;;1.90;;
1479;SDS011;732;51.698;4.886;2022-08-21T13:08:21;2.33;;;1.53;;
1479;SDS011;732;51.698;4.886;2022-08-21T13:10:58;3.03;;;1.70;;
1479;SDS011;732;51.698;4.886;2022-08-21T13:13:39;4.53;;;2.33;;
1479;SDS011;732;51.698;4.886;2022-08-21T13:16:18;2.40;;;1.70;;
1479;SDS011;732;51.698;4.886;2022-08-21T13:18:53;3.43;;;2.13;;
1479;SDS011;732;51.698;4.886;2022-08-21T13:21:29;2.87;;;1.60;;
1479;SDS011;732;51.698;4.886;2022-08-21T13:24:07;2.97;;;2.20;;
1479;SDS011;732;51.698;4.886;2022-08-21T13:27:02;3.17;;;1.77;;
1479;SDS011;732;51.698;4.886;2022-08-21T13:29:42;3.00;;;1.80;;
1479;SDS011;732;51.698;4.886;2022-08-21T13:32:20;4.10;;;1.97;;
1479;SDS011;732;51.698;4.886;2022-08-21T13:34:53;2.70;;;1.73;;
1479;SDS011;732;51.698;4.886;2022-08-21T13:37:23;2.37;;;1.73;;
1479;SDS011;732;51.698;4.886;2022-08-21T13:39:54;4.83;;;2.10;;
1479;SDS011;732;51.698;4.886;2022-08-21T13:42:23;3.20;;;1.90;;
1479;SDS011;732;51.698;4.886;2022-08-21T13:44:52;2.60;;;1.80;;
1479;SDS011;732;51.698;4.886;2022-08-21T13:47:21;3.10;;;1.87;;
1479;SDS011;732;51.698;4.886;2022-08-21T13:49:51;5.00;;;2.33;;
1479;SDS011;732;51.698;4.886;2022-08-21T13:52:26;3.60;;;2.17;;
1479;SDS011;732;51.698;4.886;2022-08-21T13:54:56;2.40;;;1.70;;
1479;SDS011;732;51.698;4.886;2022-08-21T13:57:27;1.70;;;1.13;;
1479;SDS011;732;51.698;4.886;2022-08-21T14:00:14;2.43;;;1.57;;
1479;SDS011;732;51.698;4.886;2022-08-21T14:02:49;4.00;;;2.07;;
1479;SDS011;732;51.698;4.886;2022-08-21T14:05:20;2.20;;;1.73;;
1479;SDS011;732;51.698;4.886;2022-08-21T14:07:56;3.07;;;1.60;;
1479;SDS011;732;51.698;4.886;2022-08-21T14:10:35;3.97;;;1.73;;
1479;SDS011;732;51.698;4.886;2022-08-21T14:13:18;2.37;;;1.57;;
1479;SDS011;732;51.698;4.886;2022-08-21T14:16:08;2.67;;;1.40;;
1479;SDS011;732;51.698;4.886;2022-08-21T14:18:43;2.07;;;1.30;;
1479;SDS011;732;51.698;4.886;2022-08-21T14:21:22;2.47;;;1.50;;
1479;SDS011;732;51.698;4.886;2022-08-21T14:24:03;3.70;;;1.70;;
1479;SDS011;732;51.698;4.886;2022-08-21T14:26:42;4.90;;;1.50;;
1479;SDS011;732;51.698;4.886;2022-08-21T14:29:15;4.20;;;1.40;;
1479;SDS011;732;51.698;4.886;2022-08-21T14:31:49;3.30;;;1.43;;
1479;SDS011;732;51.698;4.886;2022-08-21T14:34:20;3.20;;;1.30;;
1479;SDS011;732;51.698;4.886;2022-08-21T14:36:49;3.67;;;1.30;;
1479;SDS011;732;51.698;4.886;2022-08-21T14:39:20;3.90;;;1.60;;
1479;SDS011;732;51.698;4.886;2022-08-21T14:41:49;2.10;;;1.30;;
1479;SDS011;732;51.698;4.886;2022-08-21T14:44:24;4.43;;;1.40;;
1479;SDS011;732;51.698;4.886;2022-08-21T14:46:53;4.80;;;1.57;;
1479;SDS011;732;51.698;4.886;2022-08-21T14:49:23;5.30;;;1.43;;
1479;SDS011;732;51.698;4.886;2022-08-21T14:51:54;2.93;;;1.60;;
1479;SDS011;732;51.698;4.886;2022-08-21T14:54:26;3.77;;;1.73;;
1479;SDS011;732;51.698;4.886;2022-08-21T14:56:59;5.17;;;2.37;;
1479;SDS011;732;51.698;4.886;2022-08-21T14:59:35;5.83;;;2.73;;
1479;SDS011;732;51.698;4.886;2022-08-21T15:02:05;4.90;;;1.93;;
1479;SDS011;732;51.698;4.886;2022-08-21T15:04:35;3.50;;;1.80;;
1479;SDS011;732;51.698;4.886;2022-08-21T15:07:04;4.63;;;1.70;;
1479;SDS011;732;51.698;4.886;2022-08-21T15:09:34;2.90;;;1.70;;
1479;SDS011;732;51.698;4.886;2022-08-21T15:12:02;3.70;;;1.60;;
1479;SDS011;732;51.698;4.886;2022-08-21T15:14:33;3.30;;;1.50;;
1479;SDS011;732;51.698;4.886;2022-08-21T15:17:06;4.63;;;1.63;;
1479;SDS011;732;51.698;4.886;2022-08-21T15:19:37;2.67;;;1.63;;
1479;SDS011;732;51.698;4.886;2022-08-21T15:22:05;4.17;;;1.87;;
1479;SDS011;732;51.698;4.886;2022-08-21T15:24:45;2.70;;;1.57;;
1479;SDS011;732;51.698;4.886;2022-08-21T15:27:14;2.73;;;1.70;;
1479;SDS011;732;51.698;4.886;2022-08-21T15:29:46;2.40;;;1.70;;
1479;SDS011;732;51.698;4.886;2022-08-21T15:32:15;3.93;;;2.03;;
1479;SDS011;732;51.698;4.886;2022-08-21T15:34:48;2.80;;;1.77;;
1479;SDS011;732;51.698;4.886;2022-08-21T15:37:18;2.03;;;1.53;;
1479;SDS011;732;51.698;4.886;2022-08-21T15:39:49;3.83;;;1.73;;
1479;SDS011;732;51.698;4.886;2022-08-21T15:42:19;5.93;;;3.00;;
1479;SDS011;732;51.698;4.886;2022-08-21T15:44:48;2.60;;;1.40;;
1479;SDS011;732;51.698;4.886;2022-08-21T15:47:18;3.93;;;1.50;;
1479;SDS011;732;51.698;4.886;2022-08-21T15:49:49;6.10;;;2.70;;
1479;SDS011;732;51.698;4.886;2022-08-21T15:52:18;3.10;;;1.67;;
1479;SDS011;732;51.698;4.886;2022-08-21T15:54:49;3.30;;;1.47;;
1479;SDS011;732;51.698;4.886;2022-08-21T15:57:19;2.90;;;1.80;;
1479;SDS011;732;51.698;4.886;2022-08-21T15:59:52;1.67;;;1.57;;
1479;SDS011;732;51.698;4.886;2022-08-21T16:02:25;4.50;;;1.87;;
1479;SDS011;732;51.698;4.886;2022-08-21T16:04:56;6.50;;;1.87;;
1479;SDS011;732;51.698;4.886;2022-08-21T16:07:26;2.50;;;1.70;;